Time;durP1;ratioP1;P1;durP2;ratioP2;P2;SDS_P1;SDS_P2;PMS_P1;PMS_P2;Temp;Humidity;BMP_temperature;BMP_pressure;BME280_temperature;BME280_humidity;BME280_pressure;Samples;Min_cycle;Max_cycle;Signal;HPM_P1;HPM_P2
2023/12/09 00:00:45;;;;;;;0.90;0.90;;;7.10;99.90;;;;;;5115123;28;20032;-72
2023/12/09 00:03:11;;;;;;;1.23;1.13;;;7.10;99.90;;;;;;5114962;28;20039;-71
2023/12/09 00:05:37;;;;;;;1.40;1.30;;;7.10;99.90;;;;;;5114822;28;20039;-70
2023/12/09 00:08:02;;;;;;;4.07;1.65;;;7.10;99.90;;;;;;5115359;28;20035;-73
2023/12/09 00:10:28;;;;;;;1.33;1.23;;;7.10;99.90;;;;;;5114566;28;20059;-70
2023/12/09 00:12:54;;;;;;;1.00;0.90;;;7.10;99.90;;;;;;5114720;28;20352;-71
2023/12/09 00:15:20;;;;;;;1.20;1.10;;;;;;;;;;5114910;28;20166;-69
2023/12/09 00:17:46;;;;;;;0.93;0.93;;;7.10;99.90;;;;;;5115022;28;20047;-71
2023/12/09 00:20:12;;;;;;;1.23;1.13;;;7.10;99.90;;;;;;5114803;28;20093;-70
2023/12/09 00:22:38;;;;;;;1.75;1.65;;;7.10;99.90;;;;;;5111255;28;20047;-72
2023/12/09 00:25:06;;;;;;;1.00;0.90;;;7.10;99.90;;;;;;5115003;28;20104;-69
2023/12/09 00:27:32;;;;;;;2.40;1.90;;;7.10;99.90;;;;;;5114658;28;20035;-71
2023/12/09 00:29:57;;;;;;;1.80;1.70;;;7.10;99.90;;;;;;5114695;28;20058;-72
2023/12/09 00:32:23;;;;;;;1.20;1.10;;;7.10;99.90;;;;;;5114887;28;20046;-70
2023/12/09 00:34:49;;;;;;;0.90;0.90;;;7.90;99.90;;;;;;5114524;28;20028;-69
2023/12/09 00:37:14;;;;;;;1.63;1.52;;;7.20;99.90;;;;;;5114359;28;20467;-70
2023/12/09 00:39:40;;;;;;;1.00;1.00;;;7.80;99.90;;;;;;5114170;28;20054;-69
2023/12/09 00:42:06;;;;;;;1.40;1.30;;;7.90;99.90;;;;;;5114565;28;20039;-70
2023/12/09 00:44:31;;;;;;;2.40;2.25;;;7.20;99.90;;;;;;5113363;28;20039;-72
2023/12/09 00:46:57;;;;;;;1.00;1.00;;;7.20;99.90;;;;;;5114285;28;20035;-71
2023/12/09 00:49:23;;;;;;;1.20;1.10;;;7.20;99.90;;;;;;5114337;28;20044;-72
2023/12/09 00:51:48;;;;;;;1.30;1.20;;;7.20;99.90;;;;;;5114734;28;20039;-71
2023/12/09 00:54:14;;;;;;;2.50;2.25;;;7.10;99.90;;;;;;5113162;28;20078;-71
2023/12/09 00:56:40;;;;;;;1.20;1.10;;;7.10;99.90;;;;;;5113212;28;20050;-71
2023/12/09 00:59:05;;;;;;;5.57;2.33;;;7.20;99.90;;;;;;5114495;28;20035;-72
2023/12/09 01:01:33;;;;;;;0.90;0.90;;;7.10;99.90;;;;;;5114280;28;20067;-69
2023/12/09 01:04:00;;;;;;;1.33;1.23;;;7.20;99.90;;;;;;5114199;28;20100;-71
2023/12/09 01:06:26;;;;;;;1.02;0.93;;;7.20;99.90;;;;;;5114557;28;20058;-69
2023/12/09 01:08:52;;;;;;;1.80;1.70;;;7.20;99.90;;;;;;5114457;28;20043;-69
2023/12/09 01:11:17;;;;;;;1.75;1.65;;;7.20;99.90;;;;;;5114047;28;20058;-69
2023/12/09 01:13:43;;;;;;;0.90;0.90;;;7.30;99.90;;;;;;5114032;28;20036;-70
2023/12/09 01:16:09;;;;;;;2.35;2.15;;;7.20;99.90;;;;;;5114070;28;20040;-69
2023/12/09 01:18:34;;;;;;;0.90;0.90;;;7.20;99.90;;;;;;5113747;28;20035;-70
2023/12/09 01:21:00;;;;;;;1.98;1.88;;;7.20;99.90;;;;;;5114227;28;20108;-69
2023/12/09 01:23:25;;;;;;;1.23;1.13;;;7.20;99.90;;;;;;5117732;28;20044;-69
2023/12/09 01:25:51;;;;;;;1.50;1.40;;;7.50;99.90;;;;;;5118358;28;20088;-71
2023/12/09 01:28:17;;;;;;;1.25;1.15;;;7.20;99.90;;;;;;5118117;28;20465;-70
2023/12/09 01:30:43;;;;;;;0.90;0.90;;;7.30;99.90;;;;;;5118160;28;20039;-69
2023/12/09 01:33:09;;;;;;;2.90;2.60;;;7.30;99.90;;;;;;5117832;28;20044;-68
2023/12/09 01:35:34;;;;;;;1.90;1.80;;;7.30;99.90;;;;;;5117930;28;20115;-70
2023/12/09 01:38:00;;;;;;;2.67;1.90;;;7.30;99.90;;;;;;5117969;28;20054;-71
2023/12/09 01:40:25;;;;;;;1.27;1.17;;;7.90;99.90;;;;;;5118109;28;20371;-70
2023/12/09 01:42:51;;;;;;;1.30;1.20;;;7.30;99.90;;;;;;5118389;28;20045;-69
2023/12/09 01:45:17;;;;;;;1.25;1.15;;;7.30;99.90;;;;;;5117879;28;20028;-71
2023/12/09 01:47:43;;;;;;;0.93;0.93;;;7.30;99.90;;;;;;5117674;28;20035;-68
2023/12/09 01:50:10;;;;;;;0.95;0.95;;;7.30;99.90;;;;;;5117728;28;20094;-70
2023/12/09 01:52:36;;;;;;;;;;;7.30;99.90;;;;;;5118430;28;20043;-70
2023/12/09 01:55:02;;;;;;;1.35;1.25;;;7.80;99.90;;;;;;5117616;28;19923;-70
2023/12/09 01:57:28;;;;;;;2.47;2.30;;;7.30;99.90;;;;;;5117778;28;20375;-70
2023/12/09 01:59:54;;;;;;;1.20;1.10;;;7.40;99.90;;;;;;5117555;28;20157;-72
2023/12/09 02:02:19;;;;;;;5.57;3.25;;;8.00;99.90;;;;;;5117354;28;20525;-68
2023/12/09 02:04:45;;;;;;;1.98;1.45;;;7.30;99.90;;;;;;5117480;28;20547;-71
2023/12/09 02:07:11;;;;;;;2.50;2.35;;;7.30;99.90;;;;;;5117106;28;20031;-68
2023/12/09 02:09:39;;;;;;;1.58;1.48;;;7.30;99.90;;;;;;5117293;28;20121;-69
2023/12/09 02:12:10;;;;;;;0.90;0.90;;;7.60;99.90;;;;;;5117187;28;20078;-69
2023/12/09 02:14:45;;;;;;;0.95;0.90;;;7.30;99.90;;;;;;5117317;28;20119;-69
2023/12/09 02:17:16;;;;;;;0.80;0.80;;;7.30;99.90;;;;;;5117597;28;20036;-71
2023/12/09 02:19:42;;;;;;;10.82;3.83;;;7.30;99.90;;;;;;5117371;28;20399;-71
2023/12/09 02:22:09;;;;;;;1.20;1.10;;;7.30;99.90;;;;;;5116910;28;20044;-70
2023/12/09 02:24:35;;;;;;;1.20;1.10;;;7.30;99.90;;;;;;5117012;28;20046;-70
2023/12/09 02:27:19;;;;;;;1.05;1.00;;;7.30;99.90;;;;;;5117151;28;20083;-71
2023/12/09 02:29:59;;;;;;;1.20;1.10;;;7.30;99.90;;;;;;5116966;28;20043;-71
2023/12/09 02:32:29;;;;;;;0.90;0.90;;;7.30;99.90;;;;;;5116963;28;20035;-70
2023/12/09 02:34:56;;;;;;;0.90;0.90;;;7.30;99.90;;;;;;5116868;28;20043;-70
2023/12/09 02:37:22;;;;;;;0.90;0.90;;;7.30;99.90;;;;;;5115785;28;20032;-71
2023/12/09 02:39:48;;;;;;;3.63;1.38;;;7.40;99.90;;;;;;5116757;28;20047;-70
2023/12/09 02:42:15;;;;;;;1.20;1.10;;;7.30;99.90;;;;;;5116975;28;20371;-70
2023/12/09 02:44:42;;;;;;;0.90;0.90;;;7.30;99.90;;;;;;5116635;28;20281;-69
2023/12/09 02:47:12;;;;;;;2.10;2.00;;;7.80;99.90;;;;;;5116644;28;20319;-70
2023/12/09 02:49:38;;;;;;;1.25;1.00;;;7.30;99.90;;;;;;5116813;28;20035;-71
2023/12/09 02:52:04;;;;;;;2.42;1.55;;;7.30;99.90;;;;;;5116799;28;20515;-69
2023/12/09 02:54:29;;;;;;;2.30;2.10;;;7.30;99.90;;;;;;5116449;27;20044;-70
2023/12/09 02:56:55;;;;;;;0.90;0.90;;;7.30;99.90;;;;;;5116387;28;20035;-69
2023/12/09 02:59:21;;;;;;;2.05;1.88;;;7.30;99.90;;;;;;5116203;28;20039;-71
2023/12/09 03:01:46;;;;;;;1.20;1.10;;;7.30;99.90;;;;;;5116120;28;20032;-71
2023/12/09 03:04:14;;;;;;;1.45;1.35;;;7.30;99.90;;;;;;5116234;28;20048;-69
2023/12/09 03:06:39;;;;;;;2.38;1.80;;;7.30;99.90;;;;;;5116159;28;20044;-72
2023/12/09 03:09:05;;;;;;;0.80;0.80;;;7.30;99.90;;;;;;5115956;28;20050;-71
2023/12/09 03:11:30;;;;;;;4.53;2.85;;;8.20;99.90;;;;;;5116133;28;20039;-70
2023/12/09 03:13:56;;;;;;;1.00;1.00;;;8.00;99.90;;;;;;5115991;28;20040;-73
2023/12/09 03:16:21;;;;;;;1.00;1.00;;;7.30;99.90;;;;;;5115861;28;20028;-72
2023/12/09 03:18:47;;;;;;;1.13;1.02;;;7.30;99.90;;;;;;5115921;28;20049;-69
2023/12/09 03:21:14;;;;;;;2.90;1.15;;;7.30;99.90;;;;;;5115804;28;20101;-69
2023/12/09 03:23:43;;;;;;;0.80;0.80;;;7.30;99.90;;;;;;5115898;28;20126;-70
2023/12/09 03:26:16;;;;;;;0.80;0.80;;;7.60;99.90;;;;;;5116181;28;20039;-69
2023/12/09 03:28:42;;;;;;;1.15;1.05;;;7.30;99.90;;;;;;5115785;28;20075;-70
2023/12/09 03:31:16;;;;;;;3.60;1.00;;;7.30;99.90;;;;;;5115775;28;20039;-71
2023/12/09 03:33:42;;;;;;;1.42;1.30;;;7.30;99.90;;;;;;5115925;28;20040;-71
2023/12/09 03:36:09;;;;;;;0.90;0.90;;;7.30;99.90;;;;;;5114466;28;20035;-70
2023/12/09 03:38:35;;;;;;;0.90;0.90;;;7.30;99.90;;;;;;5115505;28;20043;-70
2023/12/09 03:41:04;;;;;;;1.10;1.00;;;7.30;99.90;;;;;;5115635;28;20036;-72
2023/12/09 03:43:30;;;;;;;1.20;1.10;;;7.30;99.90;;;;;;5115809;28;20044;-70
2023/12/09 03:45:56;;;;;;;1.00;1.00;;;7.30;99.90;;;;;;5113552;28;20039;-72
2023/12/09 03:48:22;;;;;;;3.55;3.08;;;7.70;99.90;;;;;;5115341;28;20043;-70
2023/12/09 03:50:47;;;;;;;1.10;1.00;;;7.30;99.90;;;;;;5115323;28;20043;-68
2023/12/09 03:53:13;;;;;;;1.10;1.00;;;7.30;99.90;;;;;;5115235;28;20046;-71
2023/12/09 03:55:39;;;;;;;1.30;1.20;;;7.30;99.90;;;;;;5115272;28;20039;-72
2023/12/09 03:58:05;;;;;;;1.55;1.45;;;7.30;99.90;;;;;;5115253;28;20036;-71
2023/12/09 04:00:31;;;;;;;1.38;1.27;;;7.30;99.90;;;;;;5115067;28;20471;-70
2023/12/09 04:02:57;;;;;;;1.40;1.30;;;7.30;99.90;;;;;;5115120;28;20069;-70
2023/12/09 04:05:22;;;;;;;0.80;0.80;;;7.30;99.90;;;;;;5115084;27;20175;-69
2023/12/09 04:07:48;;;;;;;1.15;1.10;;;7.70;99.90;;;;;;5114931;28;20043;-69
2023/12/09 04:10:14;;;;;;;1.02;1.00;;;7.30;99.90;;;;;;5115342;28;20367;-68
2023/12/09 04:12:40;;;;;;;1.02;1.00;;;7.30;99.90;;;;;;5114683;28;20039;-69
2023/12/09 04:15:07;;;;;;;6.32;1.55;;;7.30;99.90;;;;;;5114951;28;20031;-72
2023/12/09 04:17:32;;;;;;;1.10;1.02;;;7.20;99.90;;;;;;5114762;28;20043;-71
2023/12/09 04:19:58;;;;;;;1.15;1.10;;;7.30;99.90;;;;;;5114837;28;20046;-70
2023/12/09 04:22:23;;;;;;;1.25;1.15;;;8.00;99.90;;;;;;5115346;28;20062;-69
2023/12/09 04:24:49;;;;;;;1.23;1.13;;;7.20;99.90;;;;;;5114779;28;20065;-70
2023/12/09 04:27:15;;;;;;;0.90;0.90;;;7.20;99.90;;;;;;5115095;28;20161;-68
2023/12/09 04:29:41;;;;;;;0.90;0.90;;;7.30;99.90;;;;;;5114628;28;20039;-68
2023/12/09 04:32:06;;;;;;;0.90;0.90;;;7.50;99.90;;;;;;5114544;28;20042;-71
2023/12/09 04:34:32;;;;;;;1.00;1.00;;;7.20;99.90;;;;;;5114573;28;20112;-70
2023/12/09 04:36:58;;;;;;;0.90;0.90;;;7.20;99.90;;;;;;5114405;28;20038;-70
2023/12/09 04:39:23;;;;;;;2.22;1.70;;;7.20;99.90;;;;;;5114676;28;20458;-69
2023/12/09 04:41:49;;;;;;;1.02;1.00;;;7.20;99.90;;;;;;5114381;28;20032;-71
2023/12/09 04:44:14;;;;;;;0.88;0.88;;;7.20;99.90;;;;;;5114522;28;20042;-68
2023/12/09 04:46:41;;;;;;;0.80;0.80;;;7.20;99.90;;;;;;5114609;28;20046;-70
2023/12/09 04:49:07;;;;;;;1.65;1.50;;;7.20;99.90;;;;;;5114373;28;20042;-68
2023/12/09 04:51:32;;;;;;;0.93;0.93;;;7.20;99.90;;;;;;5114299;28;20035;-71
2023/12/09 04:53:58;;;;;;;1.35;1.25;;;7.20;99.90;;;;;;5114673;28;20043;-68
2023/12/09 04:56:23;;;;;;;0.93;0.93;;;7.20;99.90;;;;;;5113113;28;20459;-69
2023/12/09 04:58:49;;;;;;;0.98;0.98;;;7.20;99.90;;;;;;5114200;28;20039;-70
2023/12/09 05:01:14;;;;;;;1.98;1.10;;;7.80;99.90;;;;;;5114083;28;20035;-70
2023/12/09 05:03:40;;;;;;;1.42;1.33;;;7.10;99.90;;;;;;5114083;28;20407;-72
2023/12/09 05:06:07;;;;;;;1.45;1.35;;;7.10;99.90;;;;;;5114139;28;20035;-69
2023/12/09 05:08:32;;;;;;;2.15;2.05;;;7.10;99.90;;;;;;5113961;28;20542;-70
2023/12/09 05:10:58;;;;;;;0.90;0.90;;;7.20;99.90;;;;;;5114560;28;20118;-71
2023/12/09 05:13:24;;;;;;;3.33;2.15;;;7.20;99.90;;;;;;5114422;28;20043;-68
2023/12/09 05:15:50;;;;;;;0.90;0.90;;;7.10;99.90;;;;;;5114117;28;20046;-71
2023/12/09 05:18:15;;;;;;;1.70;1.60;;;7.10;99.90;;;;;;5114352;28;20046;-69
2023/12/09 05:20:41;;;;;;;0.80;0.80;;;7.10;99.90;;;;;;5113746;28;20040;-69
2023/12/09 05:23:07;;;;;;;0.98;0.98;;;7.10;99.90;;;;;;5114076;28;20460;-71
2023/12/09 05:25:33;;;;;;;1.02;1.00;;;7.10;99.90;;;;;;5113924;28;20467;-70
2023/12/09 05:27:59;;;;;;;1.55;1.45;;;7.10;99.90;;;;;;5114261;28;20042;-71
2023/12/09 05:30:24;;;;;;;1.00;1.00;;;7.10;99.90;;;;;;5113882;28;20035;-71
2023/12/09 05:32:50;;;;;;;0.80;0.80;;;7.10;99.90;;;;;;5113828;28;20104;-70
2023/12/09 05:35:16;;;;;;;1.08;1.02;;;7.10;99.90;;;;;;5112909;28;20035;-71
2023/12/09 05:37:41;;;;;;;0.90;0.90;;;7.60;99.90;;;;;;5113774;28;20377;-68
2023/12/09 05:40:08;;;;;;;1.00;1.00;;;7.70;99.90;;;;;;5114517;28;20044;-68
2023/12/09 05:42:33;;;;;;;1.10;1.05;;;7.10;99.90;;;;;;5113757;28;20088;-69
2023/12/09 05:44:59;;;;;;;2.72;1.35;;;7.10;99.90;;;;;;5113782;28;20044;-67
2023/12/09 05:47:25;;;;;;;0.90;0.90;;;7.10;99.90;;;;;;5113554;28;20035;-72
2023/12/09 05:49:51;;;;;;;1.27;1.17;;;7.10;99.90;;;;;;5113847;28;20043;-69
2023/12/09 05:52:17;;;;;;;1.48;1.38;;;7.60;99.90;;;;;;5113722;28;20114;-70
2023/12/09 05:54:42;;;;;;;0.90;0.90;;;7.10;99.90;;;;;;5114205;28;20097;-69
2023/12/09 05:57:08;;;;;;;0.90;0.90;;;7.90;99.90;;;;;;5113696;28;20036;-69
2023/12/09 05:59:34;;;;;;;1.00;0.90;;;7.00;99.90;;;;;;5113683;28;20066;-69
2023/12/09 06:01:59;;;;;;;0.90;0.90;;;7.60;99.90;;;;;;5113625;28;20487;-70
2023/12/09 06:04:25;;;;;;;0.90;0.90;;;7.00;99.90;;;;;;5113583;28;20040;-70
2023/12/09 06:06:51;;;;;;;0.80;0.80;;;7.00;99.90;;;;;;5113592;28;20096;-70
2023/12/09 06:09:17;;;;;;;0.82;0.82;;;7.00;99.90;;;;;;5117163;28;20047;-71
2023/12/09 06:11:42;;;;;;;1.50;1.40;;;7.00;99.90;;;;;;5117382;28;20043;-71
2023/12/09 06:14:08;;;;;;;1.60;1.50;;;7.60;99.90;;;;;;5117248;28;20471;-70
2023/12/09 06:16:34;;;;;;;1.27;1.17;;;7.00;99.90;;;;;;5117143;28;20063;-70
2023/12/09 06:18:59;;;;;;;1.08;1.00;;;7.10;99.90;;;;;;5117149;28;20160;-70
2023/12/09 06:21:26;;;;;;;5.38;2.70;;;7.90;99.90;;;;;;5117285;28;20051;-67
2023/12/09 06:23:52;;;;;;;1.35;1.25;;;7.90;99.90;;;;;;5116790;28;20036;-74
2023/12/09 06:26:21;;;;;;;0.75;0.75;;;7.10;99.90;;;;;;5117017;28;20126;-72
2023/12/09 06:28:46;;;;;;;0.85;0.85;;;7.00;99.90;;;;;;5116811;28;20035;-72
2023/12/09 06:31:12;;;;;;;1.15;1.05;;;7.00;99.90;;;;;;5116954;28;20485;-71
2023/12/09 06:33:38;;;;;;;0.80;0.80;;;7.10;99.90;;;;;;5116921;28;20100;-73
2023/12/09 06:36:04;;;;;;;0.90;0.90;;;7.00;99.90;;;;;;5116820;28;20131;-68
2023/12/09 06:38:30;;;;;;;0.90;0.90;;;7.00;99.90;;;;;;5116888;28;20039;-71
2023/12/09 06:40:56;;;;;;;0.80;0.80;;;6.90;99.90;;;;;;5116598;28;20042;-70
2023/12/09 06:43:21;;;;;;;1.00;1.00;;;6.90;99.90;;;;;;5115883;28;20378;-72
2023/12/09 06:45:47;;;;;;;1.40;1.30;;;7.10;99.90;;;;;;5116674;28;20043;-70
2023/12/09 06:48:13;;;;;;;0.80;0.80;;;6.90;99.90;;;;;;5116602;28;20040;-70
2023/12/09 06:50:39;;;;;;;0.80;0.80;;;6.90;99.90;;;;;;5116640;28;20036;-71
2023/12/09 06:53:04;;;;;;;0.90;0.90;;;6.90;99.90;;;;;;5116184;28;20086;-72
2023/12/09 06:55:30;;;;;;;0.90;0.90;;;6.90;99.90;;;;;;5116605;28;20383;-72
2023/12/09 06:57:56;;;;;;;0.93;0.93;;;6.90;99.90;;;;;;5116800;28;20039;-71
2023/12/09 07:00:21;;;;;;;0.93;0.93;;;6.90;99.90;;;;;;5116405;28;20078;-70
2023/12/09 07:02:47;;;;;;;0.80;0.80;;;6.80;99.90;;;;;;5116440;28;20122;-69
2023/12/09 07:05:13;;;;;;;0.90;0.90;;;6.80;99.90;;;;;;5115119;28;20035;-70
2023/12/09 07:07:40;;;;;;;1.52;1.42;;;6.80;99.90;;;;;;5116253;28;20042;-72
2023/12/09 07:10:06;;;;;;;;;;;7.00;99.90;;;;;;5117262;28;20039;-70
2023/12/09 07:12:32;;;;;;;0.80;0.80;;;6.80;99.90;;;;;;5116198;28;20378;-71
2023/12/09 07:15:00;;;;;;;1.10;1.10;;;6.70;99.90;;;;;;5116007;28;20044;-69
2023/12/09 07:17:26;;;;;;;0.82;0.82;;;6.70;99.90;;;;;;5116322;28;20135;-69
2023/12/09 07:19:56;;;;;;;0.80;0.80;;;6.70;99.90;;;;;;5114872;28;20449;-71
2023/12/09 07:22:22;;;;;;;2.00;1.85;;;6.70;99.90;;;;;;5116240;28;20062;-69
2023/12/09 07:24:48;;;;;;;0.80;0.80;;;6.70;99.90;;;;;;5116225;28;20036;-69
2023/12/09 07:27:14;;;;;;;3.08;1.33;;;6.60;99.90;;;;;;5115511;28;20047;-71
2023/12/09 07:29:39;;;;;;;1.10;1.00;;;6.60;99.90;;;;;;5115759;28;20044;-73
2023/12/09 07:32:05;;;;;;;1.25;1.15;;;6.50;99.90;;;;;;5116291;28;20151;-72
2023/12/09 07:34:30;;;;;;;0.85;0.85;;;6.50;99.90;;;;;;5115704;28;20036;-71
2023/12/09 07:36:56;;;;;;;0.90;0.90;;;6.50;99.90;;;;;;5097619;28;20052;-68
2023/12/09 07:39:22;;;;;;;1.40;1.30;;;6.70;99.90;;;;;;5115631;28;20170;-73
2023/12/09 07:41:51;;;;;;;0.95;0.95;;;6.40;99.90;;;;;;5115491;28;20111;-71
2023/12/09 07:44:20;;;;;;;6.10;2.85;;;6.40;99.90;;;;;;5115567;27;20052;-68
2023/12/09 07:46:50;;;;;;;0.93;0.93;;;6.40;99.90;;;;;;5115440;28;20100;-68
2023/12/09 07:49:16;;;;;;;1.05;1.05;;;6.30;99.90;;;;;;5115373;28;20067;-69
2023/12/09 07:51:42;;;;;;;1.45;1.35;;;6.30;99.90;;;;;;5115324;28;20059;-67
2023/12/09 07:54:07;;;;;;;0.90;0.90;;;6.20;99.90;;;;;;5115295;28;20044;-68
2023/12/09 07:56:33;;;;;;;0.80;0.80;;;6.20;99.90;;;;;;5115257;28;20047;-70
2023/12/09 07:58:58;;;;;;;0.82;0.82;;;6.20;99.90;;;;;;5115432;28;20035;-75
2023/12/09 08:01:26;;;;;;;0.90;0.90;;;6.20;99.90;;;;;;5115052;28;20477;-75
2023/12/09 08:03:51;;;;;;;0.90;0.90;;;6.20;99.90;;;;;;5114955;28;20075;-68
2023/12/09 08:06:17;;;;;;;0.90;0.90;;;6.10;99.90;;;;;;5114741;28;20071;-70
2023/12/09 08:08:42;;;;;;;0.90;0.90;;;6.10;99.90;;;;;;5115445;28;20123;-71
2023/12/09 08:11:08;;;;;;;0.90;0.90;;;6.10;99.90;;;;;;5115337;28;20038;-69
2023/12/09 08:13:34;;;;;;;0.80;0.80;;;6.20;99.90;;;;;;5114876;28;20081;-68
2023/12/09 08:15:59;;;;;;;0.90;0.90;;;6.10;99.90;;;;;;5114873;28;20047;-68
2023/12/09 08:18:25;;;;;;;1.13;1.02;;;6.10;99.90;;;;;;5114870;28;20071;-70
2023/12/09 08:20:51;;;;;;;0.80;0.80;;;6.10;99.90;;;;;;5114297;28;20052;-70
2023/12/09 08:23:17;;;;;;;0.87;0.87;;;6.10;99.90;;;;;;5115296;28;20043;-70
2023/12/09 08:25:43;;;;;;;1.30;1.20;;;6.10;99.90;;;;;;5115216;28;20498;-72
2023/12/09 08:28:09;;;;;;;0.80;0.80;;;6.10;99.90;;;;;;5114765;28;20044;-69
2023/12/09 08:30:35;;;;;;;1.87;1.77;;;6.10;99.90;;;;;;5114218;28;20031;-70
2023/12/09 08:33:01;;;;;;;0.80;0.80;;;6.10;99.90;;;;;;5114696;28;20474;-67
2023/12/09 08:35:27;;;;;;;0.90;0.90;;;6.20;99.90;;;;;;5114449;28;20054;-68
2023/12/09 08:37:52;;;;;;;0.90;0.90;;;6.20;99.90;;;;;;5114764;28;20039;-70
2023/12/09 08:40:18;;;;;;;1.55;1.45;;;6.20;99.90;;;;;;5114475;28;20463;-70
2023/12/09 08:42:45;;;;;;;0.80;0.80;;;6.20;99.90;;;;;;5114964;28;20035;-71
2023/12/09 08:45:12;;;;;;;;;;;6.30;99.90;;;;;;5114862;28;20050;-69
2023/12/09 08:47:38;;;;;;;0.80;0.80;;;6.30;99.90;;;;;;5114773;28;20270;-69
2023/12/09 08:50:05;;;;;;;0.80;0.80;;;6.30;99.90;;;;;;5114372;28;20035;-68
2023/12/09 08:52:31;;;;;;;0.80;0.80;;;6.40;99.90;;;;;;5114291;28;20096;-68
2023/12/09 08:54:58;;;;;;;0.80;0.80;;;6.40;99.90;;;;;;5114359;28;20039;-70
2023/12/09 08:57:24;;;;;;;0.80;0.80;;;6.40;99.90;;;;;;5114194;28;20040;-71
2023/12/09 08:59:50;;;;;;;0.90;0.90;;;6.40;99.90;;;;;;5114406;28;20667;-70
2023/12/09 09:02:16;;;;;;;0.90;0.90;;;6.40;99.90;;;;;;5113890;28;20032;-70
2023/12/09 09:04:41;;;;;;;1.05;1.05;;;6.40;99.90;;;;;;5113784;28;20047;-69
2023/12/09 09:07:07;;;;;;;1.02;1.02;;;6.50;99.90;;;;;;5114152;28;20032;-69
2023/12/09 09:09:33;;;;;;;0.73;0.73;;;;;;;;;;5113903;28;20370;-70
2023/12/09 09:11:59;;;;;;;0.90;0.90;;;6.60;99.90;;;;;;5113580;28;20122;-69
2023/12/09 09:14:24;;;;;;;0.80;0.80;;;6.60;99.90;;;;;;5114241;28;20128;-67
2023/12/09 09:16:50;;;;;;;0.90;0.90;;;6.80;99.90;;;;;;5114080;28;20455;-70
2023/12/09 09:19:16;;;;;;;0.90;0.90;;;6.70;99.90;;;;;;5114030;28;20039;-71
2023/12/09 09:21:42;;;;;;;0.80;0.80;;;6.70;99.90;;;;;;5114024;28;20039;-69
2023/12/09 09:24:08;;;;;;;0.80;0.80;;;6.70;99.90;;;;;;5114050;28;20087;-70
2023/12/09 09:26:34;;;;;;;0.80;0.80;;;6.70;99.90;;;;;;5113844;28;20455;-68
2023/12/09 09:29:00;;;;;;;0.75;0.75;;;6.90;99.90;;;;;;5113765;28;20039;-70
2023/12/09 09:31:26;;;;;;;0.80;0.80;;;6.80;99.90;;;;;;5113953;28;20379;-70
2023/12/09 09:33:51;;;;;;;1.00;1.00;;;6.80;99.90;;;;;;5113681;28;20097;-70
2023/12/09 09:36:17;;;;;;;0.93;0.93;;;6.90;99.90;;;;;;5113909;28;20035;-69
2023/12/09 09:38:43;;;;;;;0.80;0.80;;;6.90;99.90;;;;;;5113908;28;20048;-70
2023/12/09 09:41:22;;;;;;;0.80;0.80;;;6.90;99.90;;;;;;5113837;28;20132;-69
2023/12/09 09:44:06;;;;;;;2.25;2.05;;;6.90;99.90;;;;;;5116467;28;20048;-68
2023/12/09 09:46:35;;;;;;;0.90;0.90;;;7.00;99.90;;;;;;5117794;28;20514;-70
2023/12/09 09:49:04;;;;;;;0.82;0.82;;;7.00;99.90;;;;;;5117549;28;20486;-72
2023/12/09 09:51:30;;;;;;;0.90;0.90;;;7.00;99.90;;;;;;5117692;27;20043;-71
2023/12/09 09:54:09;;;;;;;0.90;0.90;;;7.00;99.90;;;;;;5117664;28;20047;-68
2023/12/09 09:56:35;;;;;;;0.80;0.80;;;7.00;99.90;;;;;;5117756;28;20044;-70
2023/12/09 09:59:03;;;;;;;0.80;0.80;;;7.00;99.90;;;;;;5117548;28;20367;-68
2023/12/09 10:01:30;;;;;;;0.80;0.80;;;7.00;99.90;;;;;;5117452;28;20043;-69
2023/12/09 10:03:55;;;;;;;0.90;0.90;;;7.00;99.90;;;;;;5117626;28;20490;-70
2023/12/09 10:06:23;;;;;;;1.25;1.15;;;7.10;99.90;;;;;;5117432;28;20040;-70
2023/12/09 10:08:49;;;;;;;1.33;1.23;;;7.20;99.90;;;;;;5117377;28;20080;-71
2023/12/09 10:11:15;;;;;;;1.60;1.52;;;7.20;99.90;;;;;;5117396;28;20040;-69
2023/12/09 10:13:43;;;;;;;0.80;0.80;;;7.70;99.90;;;;;;5117186;28;20032;-71
2023/12/09 10:16:09;;;;;;;1.17;1.08;;;7.30;99.90;;;;;;5117689;28;20035;-68
2023/12/09 10:18:35;;;;;;;0.88;0.88;;;7.40;99.90;;;;;;5117194;28;20118;-69
2023/12/09 10:21:01;;;;;;;0.70;0.70;;;7.40;99.90;;;;;;5117045;28;20520;-68
2023/12/09 10:23:27;;;;;;;1.20;1.10;;;7.50;99.90;;;;;;5116987;28;20075;-70
2023/12/09 10:25:52;;;;;;;0.80;0.80;;;7.50;99.90;;;;;;5117077;28;20035;-68
2023/12/09 10:28:19;;;;;;;0.95;0.95;;;7.50;99.90;;;;;;5117041;28;20044;-67
2023/12/09 10:30:46;;;;;;;0.98;0.98;;;7.60;99.90;;;;;;5116924;28;20082;-70
2023/12/09 10:33:12;;;;;;;0.77;0.77;;;7.60;99.90;;;;;;5116669;28;20578;-70
2023/12/09 10:35:38;;;;;;;0.80;0.80;;;8.00;99.90;;;;;;5116884;28;20078;-71
2023/12/09 10:38:08;;;;;;;1.00;1.00;;;7.60;99.90;;;;;;5116710;28;20054;-67
2023/12/09 10:40:34;;;;;;;0.80;0.80;;;8.40;99.90;;;;;;5117059;28;20039;-68
2023/12/09 10:43:03;;;;;;;1.00;1.00;;;7.70;99.90;;;;;;5116545;28;20044;-71
2023/12/09 10:45:28;;;;;;;0.73;0.73;;;7.70;99.90;;;;;;5117143;28;20118;-70
2023/12/09 10:47:54;;;;;;;0.90;0.90;;;7.60;99.90;;;;;;5116658;28;20161;-72
2023/12/09 10:50:20;;;;;;;0.80;0.80;;;7.60;99.90;;;;;;5116625;28;20050;-69
2023/12/09 10:52:46;;;;;;;0.80;0.80;;;7.60;99.90;;;;;;5116643;28;20035;-71
2023/12/09 10:55:11;;;;;;;0.80;0.80;;;7.60;99.90;;;;;;5116374;28;20046;-72
2023/12/09 10:57:39;;;;;;;1.10;1.00;;;7.60;99.90;;;;;;5116899;28;20043;-69
2023/12/09 11:00:14;;;;;;;0.80;0.80;;;7.60;99.90;;;;;;5116478;28;20040;-70
2023/12/09 11:02:40;;;;;;;0.90;0.90;;;7.60;99.90;;;;;;5116660;28;20062;-71
2023/12/09 11:05:09;;;;;;;1.60;1.50;;;8.00;99.90;;;;;;5116907;28;20044;-68
2023/12/09 11:07:37;;;;;;;0.80;0.80;;;7.60;99.90;;;;;;5116266;28;20114;-72
2023/12/09 11:10:06;;;;;;;0.80;0.80;;;7.50;99.90;;;;;;5116216;28;20114;-71
2023/12/09 11:12:33;;;;;;;0.80;0.80;;;7.50;99.90;;;;;;5115533;28;20398;-72
2023/12/09 11:15:13;;;;;;;0.77;0.77;;;7.60;99.90;;;;;;5116128;28;20071;-70
2023/12/09 11:17:43;;;;;;;0.88;0.88;;;7.60;99.90;;;;;;5115882;28;20479;-68
2023/12/09 11:20:14;;;;;;;0.80;0.80;;;7.60;99.90;;;;;;5116474;28;20049;-70
2023/12/09 11:22:41;;;;;;;0.80;0.80;;;7.60;99.90;;;;;;5116710;27;20058;-73
2023/12/09 11:25:08;;;;;;;0.75;0.75;;;7.60;99.90;;;;;;5115997;28;20069;-71
2023/12/09 11:27:36;;;;;;;0.80;0.80;;;7.60;99.90;;;;;;5115887;28;20035;-71
2023/12/09 11:30:02;;;;;;;0.90;0.90;;;8.50;99.90;;;;;;5115487;28;20486;-69
2023/12/09 11:32:29;;;;;;;0.70;0.70;;;7.60;99.90;;;;;;5116237;28;20031;-72
2023/12/09 11:34:59;;;;;;;0.80;0.80;;;7.70;99.90;;;;;;5115757;28;20078;-72
2023/12/09 11:37:28;;;;;;;0.80;0.80;;;7.70;99.90;;;;;;5115591;28;20489;-72
2023/12/09 11:39:57;;;;;;;0.80;0.80;;;7.60;99.90;;;;;;5115646;28;20447;-69
2023/12/09 11:42:24;;;;;;;0.70;0.70;;;7.70;99.90;;;;;;5115597;28;20035;-70
2023/12/09 11:44:51;;;;;;;0.80;0.80;;;8.00;99.90;;;;;;5115273;28;20055;-72
2023/12/09 11:47:18;;;;;;;0.82;0.82;;;7.70;99.90;;;;;;5115479;28;20039;-70
2023/12/09 11:49:46;;;;;;;0.80;0.80;;;8.20;99.90;;;;;;5115382;28;20040;-70
2023/12/09 11:52:12;;;;;;;0.80;0.80;;;7.80;99.90;;;;;;5115371;28;20052;-69
2023/12/09 11:54:37;;;;;;;0.80;0.80;;;7.70;99.90;;;;;;5115600;28;20138;-68
2023/12/09 11:57:03;;;;;;;0.70;0.70;;;7.70;99.90;;;;;;5115405;28;20047;-71
2023/12/09 11:59:29;;;;;;;0.80;0.80;;;7.70;99.90;;;;;;5115241;28;20073;-69
2023/12/09 12:01:54;;;;;;;1.13;1.13;;;7.70;99.90;;;;;;5115139;28;20474;-70
2023/12/09 12:04:20;;;;;;;1.25;1.15;;;8.10;99.90;;;;;;5115092;28;20043;-70
2023/12/09 12:06:45;;;;;;;0.80;0.80;;;7.70;99.90;;;;;;5114859;28;20043;-72
2023/12/09 12:09:11;;;;;;;0.80;0.80;;;7.70;99.90;;;;;;5115082;28;20036;-72
2023/12/09 12:11:37;;;;;;;2.35;2.15;;;7.70;99.90;;;;;;5115243;28;20468;-71
2023/12/09 12:14:04;;;;;;;1.10;1.00;;;7.70;99.90;;;;;;5114631;28;20088;-67
2023/12/09 12:16:30;;;;;;;0.90;0.90;;;7.80;99.90;;;;;;5117673;28;20039;-71
2023/12/09 12:18:56;;;;;;;0.85;0.85;;;7.80;99.90;;;;;;5116114;28;20035;-70
2023/12/09 12:21:22;;;;;;;1.88;1.00;;;7.80;99.90;;;;;;5114200;28;20459;-72
2023/12/09 12:23:54;;;;;;;1.02;1.00;;;7.80;99.90;;;;;;5114730;28;20123;-74
2023/12/09 12:26:21;;;;;;;0.82;0.82;;;7.80;99.90;;;;;;5114834;28;20484;-71
2023/12/09 12:28:48;;;;;;;0.85;0.85;;;7.80;99.90;;;;;;5114952;28;20079;-71
2023/12/09 12:31:14;;;;;;;0.90;0.90;;;7.80;99.90;;;;;;5114502;28;20055;-74
2023/12/09 12:33:40;;;;;;;0.80;0.80;;;7.80;99.90;;;;;;5114895;28;20369;-71
2023/12/09 12:36:07;;;;;;;0.90;0.90;;;7.80;99.90;;;;;;5114626;28;20413;-72
2023/12/09 12:38:33;;;;;;;0.90;0.90;;;7.80;99.90;;;;;;5114811;28;20036;-71
2023/12/09 12:40:58;;;;;;;0.90;0.90;;;7.80;99.90;;;;;;5113526;28;20375;-68
2023/12/09 12:43:30;;;;;;;0.90;0.90;;;7.80;99.90;;;;;;5114370;28;20036;-68
2023/12/09 12:45:58;;;;;;;0.88;0.88;;;7.90;99.90;;;;;;5114952;28;20049;-71
2023/12/09 12:48:23;;;;;;;0.75;0.75;;;7.80;99.90;;;;;;5114390;28;20039;-68
2023/12/09 12:50:49;;;;;;;0.80;0.80;;;7.90;99.90;;;;;;5111150;27;20038;-73
2023/12/09 12:53:18;;;;;;;0.90;0.90;;;7.90;99.90;;;;;;5117969;27;20029;-73